Time;durP1;ratioP1;P1;durP2;ratioP2;P2;SDS_P1;SDS_P2;PMS_P1;PMS_P2;Temp;Humidity;BMP_temperature;BMP_pressure;BME280_temperature;BME280_humidity;BME280_pressure;Samples;Min_cycle;Max_cycle;Signal;HPM_P1;HPM_P2
2021/12/05 00:22:59;;;;;;;5.72;3.55;;;;;;;20.51;43.16;94996.94;10410455;28;20115;-54
2021/12/05 00:40:15;;;;;;;5.80;3.63;;;;;;;20.48;43.14;95019.28;10410095;28;20144;-55
2021/12/05 01:18:20;;;;;;;4.30;2.85;;;;;;;20.35;43.02;95081.00;10409110;28;20481;-54
2021/12/05 01:30:05;;;;;;;3.65;2.97;;;;;;;20.31;43.09;95108.00;10370021;28;20061;-55
2021/12/05 01:35:28;;;;;;;4.28;3.03;;;;;;;20.29;43.04;95107.59;10392952;28;20512;-54
2021/12/05 02:32:34;;;;;;;3.25;2.47;;;;;;;20.13;43.00;95150.28;10391188;28;20046;-54
2021/12/05 02:43:19;;;;;;;3.97;2.80;;;;;;;20.09;42.88;95168.38;10390311;28;20103;-54
2021/12/05 02:48:39;;;;;;;3.53;2.60;;;;;;;20.07;42.89;95181.47;10405531;28;20045;-54
2021/12/05 02:54:14;;;;;;;3.58;2.35;;;;;;;20.04;42.93;95174.13;10418744;28;20606;-55
2021/12/05 03:04:59;;;;;;;6.55;2.42;;;;;;;20.02;42.82;95206.16;10404994;28;20497;-54
2021/12/05 03:10:20;;;;;;;4.55;2.20;;;;;;;20.00;42.88;95194.91;10404942;28;20053;-55
2021/12/05 03:15:40;;;;;;;3.25;2.47;;;;;;;19.98;42.90;95202.63;10400873;28;20053;-53
2021/12/05 03:21:03;;;;;;;2.63;2.20;;;;;;;19.99;42.99;95214.97;10395854;28;20069;-55
2021/12/05 03:26:30;;;;;;;3.33;2.33;;;;;;;19.97;42.90;95219.97;10378345;28;20052;-55
2021/12/05 03:31:53;;;;;;;2.83;2.30;;;;;;;19.94;42.79;95214.16;10351254;28;20690;-55
2021/12/05 03:37:16;;;;;;;2.22;1.90;;;;;;;19.93;42.84;95212.59;10375910;28;20100;-55
2021/12/05 03:42:36;;;;;;;2.50;2.10;;;;;;;19.92;42.80;95235.34;10376744;28;20047;-55
2021/12/05 03:47:57;;;;;;;2.72;2.10;;;;;;;19.90;42.73;95242.28;10360118;28;20058;-54
2021/12/05 03:53:18;;;;;;;2.67;2.00;;;;;;;19.88;42.81;95237.22;10379958;28;20053;-54
2021/12/05 03:58:38;;;;;;;2.83;2.20;;;;;;;19.87;42.84;95232.19;10398776;28;20040;-54
2021/12/05 04:04:01;;;;;;;3.08;1.95;;;;;;;19.85;42.83;95231.75;10379868;28;20381;-55
2021/12/05 04:09:22;;;;;;;2.42;2.00;;;;;;;19.83;42.91;95225.94;10400972;28;20061;-55
2021/12/05 04:14:48;;;;;;;3.75;2.08;;;;;;;19.82;43.03;95235.97;10376164;28;20045;-54
2021/12/05 04:20:11;;;;;;;2.95;2.05;;;;;;;19.81;42.86;95253.31;10381368;28;20042;-55
2021/12/05 04:25:36;;;;;;;2.42;1.65;;;;;;;19.79;42.82;95249.44;10391119;28;20042;-55
2021/12/05 04:30:56;;;;;;;2.05;1.75;;;;;;;19.77;42.86;95271.41;10391512;28;20061;-54
2021/12/05 04:36:17;;;;;;;2.10;1.80;;;;;;;19.76;43.01;95272.56;10385392;28;20042;-55
2021/12/05 04:41:39;;;;;;;2.45;1.98;;;;;;;19.75;42.86;95287.19;10368426;28;20038;-55
2021/12/05 04:47:01;;;;;;;2.15;1.80;;;;;;;19.73;42.87;95290.25;10396602;28;20086;-55
2021/12/05 04:52:22;;;;;;;2.40;2.05;;;;;;;19.72;42.81;95298.75;10414857;28;20033;-55
2021/12/05 04:57:42;;;;;;;2.47;1.98;;;;;;;19.70;42.96;95314.50;10393074;28;20045;-55
2021/12/05 05:03:02;;;;;;;2.65;1.83;;;;;;;19.69;42.89;95326.44;10389381;28;20045;-55
2021/12/05 05:08:22;;;;;;;2.13;1.70;;;;;;;19.68;42.97;95331.06;10388415;28;20042;-55
2021/12/05 05:13:43;;;;;;;6.25;1.92;;;;;;;19.66;43.05;95333.34;10405786;28;20538;-55
2021/12/05 05:19:03;;;;;;;1.92;1.63;;;;;;;19.66;42.83;95337.97;10386014;28;20069;-55
2021/12/05 05:25:02;;;;;;;1.60;1.50;;;;;;;19.64;42.98;95340.25;10385221;28;20057;-54
2021/12/05 05:47:13;;;;;;;1.83;1.50;;;;;;;19.67;42.83;95361.16;10408028;28;20091;-54
2021/12/05 05:52:33;;;;;;;1.65;1.52;;;;;;;19.70;42.91;95373.94;10361707;28;20046;-55
2021/12/05 06:03:24;;;;;;;1.60;1.50;;;;;;;19.74;42.79;95383.69;10390228;28;20054;-54
2021/12/05 06:08:44;;;;;;;1.73;1.45;;;;;;;19.77;42.96;95390.28;10392064;28;20685;-53
2021/12/05 06:14:04;;;;;;;1.33;1.23;;;;;;;19.79;42.71;95395.34;10404299;28;20041;-55
2021/12/05 06:19:24;;;;;;;1.90;1.60;;;;;;;19.81;42.91;95401.94;10431330;28;20655;-55
2021/12/05 06:24:43;;;;;;;1.60;1.50;;;;;;;19.84;42.84;95417.47;10374406;28;20054;-54
2021/12/05 06:30:54;;;;;;;1.58;1.45;;;;;;;19.85;42.74;95419.00;10389898;28;20056;-54
2021/12/05 06:41:47;;;;;;;1.60;1.40;;;;;;;19.87;42.63;95424.81;10393194;28;20045;-54
2021/12/05 06:47:09;;;;;;;2.05;1.40;;;;;;;19.90;42.90;95428.75;10387797;28;20057;-55
2021/12/05 06:52:29;;;;;;;1.55;1.30;;;;;;;19.89;42.81;95438.75;10397483;28;20648;-54
2021/12/05 06:57:49;;;;;;;1.67;1.52;;;;;;;19.92;42.67;95454.28;10405255;28;20076;-54
2021/12/05 07:03:10;;;;;;;1.58;1.30;;;;;;;19.92;42.75;95459.69;10399208;28;20053;-55
2021/12/05 07:08:33;;;;;;;1.90;1.27;;;;;;;19.94;42.58;95457.41;10411333;28;20712;-54
2021/12/05 07:19:58;;;;;;;1.42;1.33;;;;;;;20.00;42.64;95457.13;10401965;28;20072;-54
2021/12/05 07:25:08;;;;;;;1.45;1.35;;;;;;;20.03;42.44;95457.19;10403088;28;20053;-55
2021/12/05 07:42:04;;;;;;;1.50;1.20;;;;;;;20.12;42.40;95465.81;10408602;28;20668;-55
2021/12/05 07:47:29;;;;;;;1.40;1.05;;;;;;;20.16;42.42;95471.28;10410761;28;20048;-55
2021/12/05 07:52:53;;;;;;;2.28;1.60;;;;;;;20.22;42.70;95477.19;10397956;28;20485;-54
2021/12/05 08:14:59;;;;;;;2.07;1.13;;;;;;;20.38;43.51;95480.53;10407511;28;20064;-54
2021/12/05 08:20:22;;;;;;;4.00;1.33;;;;;;;20.42;43.38;95494.13;10419455;28;20053;-58
2021/12/05 08:25:52;;;;;;;2.67;1.15;;;;;;;20.44;43.19;95518.91;10384816;28;20124;-54
2021/12/05 08:31:25;;;;;;;3.28;1.00;;;;;;;20.48;42.86;95527.84;10387935;28;20707;-55
2021/12/05 09:27:49;;;;;;;3.13;1.17;;;;;;;20.51;40.76;95543.38;10403208;28;20045;-56
2021/12/05 10:07:04;;;;;;;3.58;1.20;;;;;;;20.18;37.57;95533.91;10388951;28;20409;-56
2021/12/05 10:12:57;;;;;;;2.78;1.10;;;;;;;20.22;37.85;95564.50;10390744;28;20037;-56
2021/12/05 10:46:34;;;;;;;1.83;0.95;;;;;;;20.42;39.47;95562.53;10392935;28;20045;-56
2021/12/05 10:51:57;;;;;;;4.45;1.33;;;;;;;20.42;36.49;95559.06;10394962;28;20397;-54
2021/12/05 10:57:27;;;;;;;3.55;1.25;;;;;;;20.44;38.74;95554.06;10377968;28;20054;-56
2021/12/05 11:02:47;;;;;;;3.30;1.10;;;;;;;20.48;39.42;95550.28;10389765;28;20079;-54
2021/12/05 11:08:33;;;;;;;3.05;1.30;;;;;;;20.51;39.63;95543.38;10403953;28;20049;-54
2021/12/05 11:13:53;;;;;;;2.67;1.17;;;;;;;20.54;39.78;95542.63;10402353;28;20053;-53
2021/12/05 11:19:21;;;;;;;3.63;1.42;;;;;;;20.56;39.47;95551.16;10403672;28;20060;-53
2021/12/05 11:24:47;;;;;;;5.78;1.60;;;;;;;20.45;38.11;95542.88;10403319;28;20145;-53
2021/12/05 11:30:18;;;;;;;7.45;2.17;;;;;;;20.48;38.85;95546.78;10396496;28;20060;-53
2021/12/05 11:35:42;;;;;;;8.55;2.47;;;;;;;20.49;39.00;95546.44;10411075;28;20037;-53
2021/12/05 11:41:08;;;;;;;8.77;2.65;;;;;;;20.52;39.12;95539.50;10412346;28;20042;-53
2021/12/05 11:46:35;;;;;;;11.02;2.72;;;;;;;20.52;39.34;95548.44;10410762;28;20049;-52
2021/12/05 11:51:58;;;;;;;9.85;2.58;;;;;;;20.53;38.23;95544.56;10385029;28;20065;-53
2021/12/05 11:57:24;;;;;;;6.47;2.55;;;;;;;20.53;38.77;95527.56;10365608;28;20053;-53
2021/12/05 12:02:46;;;;;;;10.23;2.45;;;;;;;20.51;39.01;95533.31;10398561;28;21646;-56
2021/12/05 12:08:12;;;;;;;6.43;2.83;;;;;;;20.51;39.02;95533.31;10393264;28;20041;-55
2021/12/05 12:13:35;;;;;;;5.97;2.20;;;;;;;20.52;38.75;95531.41;10384503;28;20053;-53
2021/12/05 12:18:57;;;;;;;7.07;2.60;;;;;;;20.51;39.12;95527.91;10391405;28;20042;-54
2021/12/05 12:24:17;;;;;;;8.93;2.50;;;;;;;20.51;39.25;95548.78;10383315;28;20057;-53
2021/12/05 12:29:37;;;;;;;8.32;2.20;;;;;;;20.51;38.85;95540.66;10378508;28;20057;-54
2021/12/05 12:35:06;;;;;;;9.07;2.47;;;;;;;20.50;38.56;95547.22;10386898;28;20049;-54
2021/12/05 12:40:40;;;;;;;6.30;2.50;;;;;;;20.50;38.67;95558.03;10400934;28;20080;-55
2021/12/05 12:46:13;;;;;;;6.20;2.10;;;;;;;20.51;38.93;95565.00;10409472;28;20049;-53
2021/12/05 12:51:35;;;;;;;7.13;2.65;;;;;;;20.50;39.34;95577.78;10382425;28;20033;-53
2021/12/05 12:57:24;;;;;;;5.60;1.88;;;;;;;20.51;39.17;95586.66;10395958;28;20050;-54
2021/12/05 13:14:05;;;;;;;5.82;2.15;;;;;;;20.50;40.12;95585.88;10391693;28;20493;-53
2021/12/05 13:19:26;;;;;;;6.97;2.55;;;;;;;20.48;37.78;95588.16;10404005;28;20057;-53
2021/12/05 13:24:46;;;;;;;8.43;1.88;;;;;;;20.43;40.02;95593.88;10386172;28;20548;-54
2021/12/05 13:30:06;;;;;;;5.40;2.10;;;;;;;20.44;40.83;95597.34;10406112;28;20049;-53
2021/12/05 13:35:29;;;;;;;7.03;2.00;;;;;;;20.45;41.38;95609.75;10397304;28;20053;-53
2021/12/05 13:40:49;;;;;;;7.55;1.90;;;;;;;20.45;41.05;95612.44;10394244;28;20061;-55
2021/12/05 13:46:34;;;;;;;10.32;2.22;;;;;;;20.44;41.95;95619.75;10400371;28;20037;-57
2021/12/05 13:51:54;;;;;;;11.50;2.03;;;;;;;20.45;42.27;95621.34;10390222;28;20139;-55
2021/12/05 13:57:14;;;;;;;11.75;4.30;;;;;;;20.41;40.07;95625.91;10382231;28;20049;-52
2021/12/05 14:03:03;;;;;;;11.45;4.35;;;;;;;20.37;41.29;95626.97;10388818;28;20054;-55
2021/12/05 14:08:22;;;;;;;11.13;3.17;;;;;;;20.36;40.80;95615.34;10376204;28;20103;-49
2021/12/05 14:13:42;;;;;;;8.38;2.83;;;;;;;20.37;41.68;95621.56;10398096;28;20057;-53
2021/12/05 14:19:04;;;;;;;8.20;2.65;;;;;;;20.38;42.42;95617.72;10395506;28;20045;-51
2021/12/05 14:24:30;;;;;;;13.32;3.10;;;;;;;20.41;42.69;95611.59;10397612;28;20065;-59
2021/12/05 14:29:50;;;;;;;16.65;3.13;;;;;;;20.42;43.46;95613.16;10386477;28;20052;-56
2021/12/05 14:35:16;;;;;;;11.30;2.92;;;;;;;20.44;44.23;95616.28;10412316;28;20037;-59
2021/12/05 14:40:37;;;;;;;12.07;2.72;;;;;;;20.44;44.84;95618.97;10400155;28;20050;-58
2021/12/05 14:46:00;;;;;;;13.30;2.45;;;;;;;-146.19;100.00;65364.44;10391920;28;20697;-55
2021/12/05 14:51:34;;;;;;;10.02;2.63;;;;;;;20.45;45.44;95631.38;10400149;28;20421;-54
2021/12/05 14:56:54;;;;;;;6.78;2.85;;;;;;;20.37;39.04;95637.81;10381352;28;20452;-53
2021/12/05 15:02:15;;;;;;;15.38;4.20;;;;;;;20.26;42.91;95635.66;10385789;28;20062;-56
2021/12/05 15:07:34;;;;;;;15.98;3.25;;;;;;;20.31;43.66;95661.66;10399954;28;20068;-57
2021/12/05 15:12:54;;;;;;;11.00;3.17;;;;;;;20.29;43.39;95659.28;10391935;28;20477;-55
2021/12/05 15:18:15;;;;;;;13.32;3.33;;;;;;;20.29;42.91;95669.34;10392345;28;20473;-55
2021/12/05 15:23:36;;;;;;;7.70;3.10;;;;;;;20.25;41.02;95669.25;10396084;28;20056;-52
2021/12/05 15:29:02;;;;;;;6.78;3.08;;;;;;;20.24;40.33;95683.13;10398442;28;20045;-54
2021/12/05 15:34:27;;;;;;;9.02;3.25;;;;;;;20.20;41.15;95688.47;10390273;28;20061;-54
2021/12/05 15:39:49;;;;;;;6.35;2.95;;;;;;;20.15;41.46;95672.53;10406691;28;20045;-53
2021/12/05 15:45:12;;;;;;;12.77;3.13;;;;;;;20.19;42.55;95678.00;10398068;28;20057;-57
2021/12/05 15:50:34;;;;;;;10.90;3.10;;;;;;;20.22;43.37;95677.28;10398261;28;20054;-56
2021/12/05 15:56:03;;;;;;;12.63;2.97;;;;;;;20.23;43.95;95674.25;10399481;28;20455;-55
2021/12/05 16:01:24;;;;;;;10.00;2.40;;;;;;;20.25;44.78;95671.97;10400284;28;20049;-59
2021/12/05 16:06:44;;;;;;;15.57;3.10;;;;;;;20.25;44.58;95666.56;10411018;28;20033;-55
2021/12/05 16:12:14;;;;;;;11.45;2.90;;;;;;;20.25;44.58;95666.56;10405121;28;20037;-59
2021/12/05 16:17:35;;;;;;;9.43;2.80;;;;;;;20.25;45.65;95679.31;10408051;28;20038;-60
2021/12/05 16:23:05;;;;;;;17.00;9.65;;;;;;;19.99;38.19;95671.78;10410733;28;20509;-58
2021/12/05 16:28:50;;;;;;;12.60;5.63;;;;;;;19.99;42.77;95675.28;10409631;28;20054;-62
2021/12/05 16:34:36;;;;;;;14.90;5.78;;;;;;;20.06;43.93;95682.75;10399221;28;20042;-56
2021/12/05 16:39:57;;;;;;;16.80;4.85;;;;;;;20.06;43.93;95682.75;10404540;28;20045;-58
2021/12/05 16:45:17;;;;;;;10.68;4.18;;;;;;;20.09;43.61;95690.94;10395071;28;21466;-60
2021/12/05 16:50:36;;;;;;;17.63;5.35;;;;;;;20.11;44.49;95706.81;10401719;28;20053;-63
2021/12/05 16:56:00;;;;;;;12.15;4.70;;;;;;;-146.19;100.00;65364.44;10415659;28;20510;-55
2021/12/05 17:01:20;;;;;;;12.93;4.53;;;;;;;-146.19;100.00;65364.44;10392362;28;20077;-57
2021/12/05 17:07:08;;;;;;;12.02;4.57;;;;;;;20.11;44.49;95706.81;10388027;28;20053;-59
2021/12/05 17:12:31;;;;;;;10.33;4.83;;;;;;;19.95;41.94;95726.56;10402653;28;20054;-56
2021/12/05 17:17:53;;;;;;;14.75;4.68;;;;;;;19.99;42.72;95740.16;10394148;28;20293;-55
2021/12/05 17:23:30;;;;;;;10.10;4.13;;;;;;;20.04;44.13;95748.00;10394504;28;20057;-58
2021/12/05 17:28:57;;;;;;;11.27;4.30;;;;;;;20.07;44.94;95751.91;10391530;28;20677;-58
2021/12/05 17:34:22;;;;;;;11.10;5.03;;;;;;;20.03;41.17;95751.84;10398232;28;20049;-56
2021/12/05 17:39:43;;;;;;;8.65;4.25;;;;;;;20.03;42.91;95756.44;10379437;28;20445;-56
2021/12/05 17:45:07;;;;;;;8.68;4.20;;;;;;;20.02;42.48;95763.78;10388015;28;20674;-56
2021/12/05 17:50:27;;;;;;;7.80;3.75;;;;;;;19.99;42.99;95788.03;10393610;28;20049;-58
2021/12/05 17:55:48;;;;;;;8.02;4.15;;;;;;;19.96;42.37;95794.94;10388095;28;20054;-56
2021/12/05 18:06:46;;;;;;;6.60;3.87;;;;;;;19.92;43.52;95805.66;10387608;28;20221;-57
2021/12/05 18:12:13;;;;;;;5.07;3.60;;;;;;;19.92;43.57;95802.94;10408754;28;20500;-56
2021/12/05 18:17:33;;;;;;;9.10;3.55;;;;;;;19.92;44.13;95800.25;10386602;28;20045;-55
2021/12/05 18:22:55;;;;;;;12.32;7.40;;;;;;;19.70;34.91;95798.94;10395055;28;20057;-55
2021/12/05 18:28:15;;;;;;;11.48;7.13;;;;;;;18.67;31.27;95792.34;10408268;28;20045;-56
2021/12/05 18:33:35;;;;;;;12.25;5.72;;;;;;;18.77;37.79;95785.69;10411715;28;20068;-55
2021/12/05 18:38:56;;;;;;;9.52;5.55;;;;;;;19.12;38.99;95779.72;10388224;28;20069;-55
2021/12/05 18:44:19;;;;;;;10.40;5.55;;;;;;;19.29;39.57;95778.63;10393590;28;20049;-56
2021/12/05 18:49:38;;;;;;;9.23;5.15;;;;;;;19.39;39.53;95794.31;10400392;28;20045;-56
2021/12/05 18:54:58;;;;;;;9.73;5.28;;;;;;;19.47;40.21;95800.66;10410250;28;20064;-57
2021/12/05 19:00:28;;;;;;;11.07;4.70;;;;;;;19.52;41.17;95812.00;10399846;28;20055;-60
2021/12/05 19:05:56;;;;;;;9.90;4.50;;;;;;;19.55;41.98;95813.22;10395773;28;20046;-55
2021/12/05 19:17:01;;;;;;;11.32;5.18;;;;;;;19.58;42.70;95811.72;10399752;28;20053;-54
2021/12/05 19:22:30;;;;;;;10.23;4.93;;;;;;;19.59;43.07;95824.13;10420018;28;20508;-54
2021/12/05 19:27:53;;;;;;;10.73;4.82;;;;;;;19.59;43.57;95830.28;10407305;28;20050;-61
2021/12/05 19:33:14;;;;;;;8.15;4.53;;;;;;;19.59;44.10;95829.53;10412039;28;20072;-57
2021/12/05 19:38:34;;;;;;;12.85;4.50;;;;;;;19.60;44.30;95847.28;10404221;28;20708;-59
2021/12/05 19:43:54;;;;;;;8.35;4.45;;;;;;;19.60;44.04;95855.38;10398910;28;20100;-58
2021/12/05 19:49:14;;;;;;;9.65;4.50;;;;;;;19.58;44.34;95852.25;10416847;28;20087;-56
2021/12/05 19:54:34;;;;;;;7.93;4.25;;;;;;;19.58;44.48;95854.94;10422088;28;20042;-59
2021/12/05 19:59:53;;;;;;;7.35;4.03;;;;;;;19.58;44.34;95854.94;10390907;28;20046;-54
2021/12/05 20:05:14;;;;;;;6.00;3.95;;;;;;;19.57;44.29;95859.56;10424567;28;20049;-59
2021/12/05 20:10:37;;;;;;;9.63;4.18;;;;;;;19.56;44.89;95869.59;10400049;28;20052;-56
2021/12/05 20:15:57;;;;;;;89.35;27.58;;;;;;;19.55;45.02;95857.22;10402260;28;20072;-55
2021/12/05 20:21:17;;;;;;;35.28;12.65;;;;;;;19.55;44.88;95857.22;10403199;28;20060;-57
2021/12/05 20:26:37;;;;;;;22.10;9.10;;;;;;;19.54;45.35;95854.84;10409643;28;20060;-54
2021/12/05 20:31:57;;;;;;;16.75;7.43;;;;;;;19.53;45.11;95858.69;10407120;28;20535;-53
2021/12/05 20:37:16;;;;;;;19.70;6.55;;;;;;;19.53;45.23;95854.06;10387669;28;20083;-54
2021/12/05 20:42:36;;;;;;;15.40;6.30;;;;;;;19.53;45.35;95850.59;10389580;28;20054;-54
2021/12/05 20:47:56;;;;;;;15.60;6.40;;;;;;;19.52;45.46;95852.53;10370063;28;20049;-53
2021/12/05 20:53:17;;;;;;;15.00;5.97;;;;;;;19.53;45.34;95858.69;10383523;28;20056;-53
2021/12/05 20:58:36;;;;;;;49.72;14.80;;;;;;;19.52;46.11;95852.53;10390049;28;20054;-53
2021/12/05 21:03:58;;;;;;;30.65;9.38;;;;;;;19.50;46.40;95846.69;10419411;28;20042;-53
2021/12/05 21:09:18;;;;;;;31.65;8.77;;;;;;;19.50;46.39;95846.69;10404318;28;20072;-53
2021/12/05 21:14:37;;;;;;;22.40;7.72;;;;;;;19.50;46.23;95862.91;10411408;28;21330;-53
2021/12/05 21:19:57;;;;;;;21.65;7.93;;;;;;;19.49;46.25;95866.72;10405665;28;20057;-53
2021/12/05 21:25:17;;;;;;;22.52;7.85;;;;;;;19.49;46.23;95869.41;10385219;28;20469;-52
2021/12/05 21:30:39;;;;;;;20.02;7.53;;;;;;;19.47;46.13;95870.91;10389900;28;20050;-53
2021/12/05 21:36:00;;;;;;;21.65;7.45;;;;;;;19.46;46.04;95869.31;10441406;28;20053;-54
2021/12/05 21:41:21;;;;;;;21.85;7.85;;;;;;;19.45;45.96;95878.56;10408166;28;20049;-54
2021/12/05 21:46:41;;;;;;;19.98;7.80;;;;;;;19.45;46.81;95868.53;10416400;28;20038;-54
2021/12/05 21:52:00;;;;;;;17.05;6.50;;;;;;;19.44;46.36;95877.75;10396940;28;20061;-54
2021/12/05 21:57:20;;;;;;;17.88;7.03;;;;;;;19.42;46.37;95871.91;10413949;28;20099;-53
2021/12/05 22:02:42;;;;;;;14.98;6.53;;;;;;;19.41;46.29;95878.47;10388790;28;20408;-54
2021/12/05 22:08:02;;;;;;;15.38;6.75;;;;;;;19.41;46.17;95881.16;10391997;28;20049;-54
2021/12/05 22:13:23;;;;;;;17.58;6.50;;;;;;;19.39;46.15;95880.72;10400480;28;20041;-53
2021/12/05 22:18:47;;;;;;;13.77;6.20;;;;;;;19.38;46.12;95879.13;10398701;28;20049;-53
2021/12/05 22:24:08;;;;;;;14.45;6.28;;;;;;;19.38;45.98;95883.75;10379377;28;20050;-53
2021/12/05 22:29:28;;;;;;;14.07;5.95;;;;;;;19.36;46.08;95881.41;10390425;28;20033;-54
2021/12/05 22:34:48;;;;;;;15.05;6.10;;;;;;;19.35;45.96;95896.06;10373535;28;20050;-54
2021/12/05 22:40:10;;;;;;;13.15;5.85;;;;;;;19.34;46.05;95891.75;10399634;28;20057;-54
2021/12/05 22:45:30;;;;;;;13.05;5.53;;;;;;;19.33;46.18;95906.41;10375112;28;20073;-54
2021/12/05 22:50:49;;;;;;;11.45;5.20;;;;;;;19.31;46.12;95906.75;10401488;28;20046;-54
2021/12/05 22:56:09;;;;;;;14.50;5.70;;;;;;;19.31;46.07;95906.75;10392326;28;20501;-54
2021/12/05 23:01:29;;;;;;;12.73;5.85;;;;;;;19.30;46.08;95904.38;10369200;28;20533;-54
2021/12/05 23:06:49;;;;;;;11.68;5.07;;;;;;;19.29;45.97;95905.53;10376023;28;20041;-54
2021/12/05 23:12:09;;;;;;;11.82;5.57;;;;;;;19.28;46.12;95906.66;10389433;28;20084;-54
2021/12/05 23:17:28;;;;;;;13.75;5.60;;;;;;;19.26;45.98;95911.59;10384712;28;20413;-54
2021/12/05 23:22:48;;;;;;;10.07;5.25;;;;;;;19.26;46.13;95917.00;10388298;28;20054;-54
2021/12/05 23:28:08;;;;;;;10.30;5.10;;;;;;;19.25;45.94;95915.41;10387943;28;20470;-54
2021/12/05 23:33:28;;;;;;;11.43;4.93;;;;;;;19.23;46.02;95923.88;10383873;28;20081;-55
2021/12/05 23:38:48;;;;;;;11.60;4.95;;;;;;;19.24;46.00;95922.75;10395101;28;20145;-54
2021/12/05 23:44:08;;;;;;;10.07;4.82;;;;;;;19.24;45.83;95933.53;10393603;28;20038;-53
2021/12/05 23:49:28;;;;;;;10.13;4.38;;;;;;;19.22;45.71;95933.09;10373845;28;20041;-54
2021/12/05 23:54:47;;;;;;;11.00;4.47;;;;;;;19.20;45.77;95927.25;10402906;28;20096;-54
